sensor_id;sensor_type;location;lat;lon;timestamp;pressure;altitude;pressure_sealevel;temperature;humidity
7026;BME280;3554;42.132;24.786;2023-04-03T00:00:04;98693.53;;;13.09;100.00
7026;BME280;3554;42.132;24.786;2023-04-03T00:02:32;98670.91;;;12.92;100.00
7026;BME280;3554;42.132;24.786;2023-04-03T00:04:59;98684.69;;;12.96;100.00
7026;BME280;3554;42.132;24.786;2023-04-03T00:07:26;98685.25;;;12.86;100.00
7026;BME280;3554;42.132;24.786;2023-04-03T00:09:54;98682.34;;;12.91;100.00
7026;BME280;3554;42.132;24.786;2023-04-03T00:12:21;98679.47;;;13.10;100.00
7026;BME280;3554;42.132;24.786;2023-04-03T00:14:48;98687.91;;;13.15;100.00
7026;BME280;3554;42.132;24.786;2023-04-03T00:17:14;98687.91;;;13.15;100.00
7026;BME280;3554;42.132;24.786;2023-04-03T00:19:41;98689.13;;;13.09;100.00
7026;BME280;3554;42.132;24.786;2023-04-03T00:22:08;98686.88;;;13.03;100.00
7026;BME280;3554;42.132;24.786;2023-04-03T00:24:35;98690.09;;;13.08;100.00
7026;BME280;3554;42.132;24.786;2023-04-03T00:27:03;98683.88;;;13.09;100.00
7026;BME280;3554;42.132;24.786;2023-04-03T00:29:29;98688.13;;;13.12;100.00
7026;BME280;3554;42.132;24.786;2023-04-03T00:31:56;98684.44;;;13.14;100.00
7026;BME280;3554;42.132;24.786;2023-04-03T00:34:23;98688.84;;;13.14;100.00
7026;BME280;3554;42.132;24.786;2023-04-03T00:36:50;98689.88;;;13.11;100.00
7026;BME280;3554;42.132;24.786;2023-04-03T00:39:17;98689.03;;;13.11;100.00
7026;BME280;3554;42.132;24.786;2023-04-03T00:41:44;98685.75;;;13.07;100.00
7026;BME280;3554;42.132;24.786;2023-04-03T00:44:23;98690.09;;;13.08;100.00
7026;BME280;3554;42.132;24.786;2023-04-03T00:47:11;98687.88;;;12.86;100.00
7026;BME280;3554;42.132;24.786;2023-04-03T00:49:40;98698.19;;;12.89;100.00
7026;BME280;3554;42.132;24.786;2023-04-03T00:52:11;98691.09;;;13.06;100.00
7026;BME280;3554;42.132;24.786;2023-04-03T00:54:42;98692.94;;;12.89;100.00
7026;BME280;3554;42.132;24.786;2023-04-03T00:57:10;98693.72;;;12.48;100.00
7026;BME280;3554;42.132;24.786;2023-04-03T00:59:41;98689.38;;;12.33;100.00
7026;BME280;3554;42.132;24.786;2023-04-03T01:02:10;98690.19;;;12.19;100.00
7026;BME280;3554;42.132;24.786;2023-04-03T01:04:38;98641.31;;;11.73;100.00
7026;BME280;3554;42.132;24.786;2023-04-03T01:07:07;98679.84;;;11.87;100.00
7026;BME280;3554;42.132;24.786;2023-04-03T01:09:35;98684.56;;;12.25;100.00
7026;BME280;3554;42.132;24.786;2023-04-03T01:12:15;98685.13;;;12.60;100.00
7026;BME280;3554;42.132;24.786;2023-04-03T01:14:44;98680.16;;;12.69;100.00
7026;BME280;3554;42.132;24.786;2023-04-03T01:17:29;98668.75;;;12.70;100.00
7026;BME280;3554;42.132;24.786;2023-04-03T01:20:14;98661.97;;;12.52;100.00
7026;BME280;3554;42.132;24.786;2023-04-03T01:22:53;98675.44;;;12.46;100.00
7026;BME280;3554;42.132;24.786;2023-04-03T01:25:22;98678.34;;;12.42;100.00
7026;BME280;3554;42.132;24.786;2023-04-03T01:27:49;98683.53;;;12.57;100.00
7026;BME280;3554;42.132;24.786;2023-04-03T01:30:20;98667.59;;;12.60;100.00
7026;BME280;3554;42.132;24.786;2023-04-03T01:32:48;98677.19;;;12.75;100.00
7026;BME280;3554;42.132;24.786;2023-04-03T01:35:15;98686.72;;;12.76;100.00
7026;BME280;3554;42.132;24.786;2023-04-03T01:37:42;98678.84;;;12.62;100.00
7026;BME280;3554;42.132;24.786;2023-04-03T01:40:09;98679.91;;;12.30;100.00
7026;BME280;3554;42.132;24.786;2023-04-03T01:42:36;98677.25;;;12.16;100.00
7026;BME280;3554;42.132;24.786;2023-04-03T01:45:03;98672.78;;;12.32;100.00
7026;BME280;3554;42.132;24.786;2023-04-03T01:47:30;98680.09;;;12.27;100.00
7026;BME280;3554;42.132;24.786;2023-04-03T01:49:58;98689.19;;;12.36;100.00
7026;BME280;3554;42.132;24.786;2023-04-03T01:52:25;98683.78;;;12.39;100.00
7026;BME280;3554;42.132;24.786;2023-04-03T01:54:52;98688.97;;;11.95;100.00
7026;BME280;3554;42.132;24.786;2023-04-03T01:57:19;98692.72;;;12.21;100.00
7026;BME280;3554;42.132;24.786;2023-04-03T01:59:45;98688.25;;;12.23;100.00
7026;BME280;3554;42.132;24.786;2023-04-03T02:02:12;98696.34;;;12.18;100.00
7026;BME280;3554;42.132;24.786;2023-04-03T02:04:40;98681.63;;;11.86;100.00
7026;BME280;3554;42.132;24.786;2023-04-03T02:07:08;98676.31;;;11.41;100.00
7026;BME280;3554;42.132;24.786;2023-04-03T02:09:35;98693.38;;;11.63;100.00
7026;BME280;3554;42.132;24.786;2023-04-03T02:12:02;98692.38;;;11.66;100.00
7026;BME280;3554;42.132;24.786;2023-04-03T02:14:28;98691.13;;;11.73;100.00
7026;BME280;3554;42.132;24.786;2023-04-03T02:16:55;98689.50;;;11.70;100.00
7026;BME280;3554;42.132;24.786;2023-04-03T02:19:22;98681.13;;;11.79;100.00
7026;BME280;3554;42.132;24.786;2023-04-03T02:21:49;98643.41;;;11.51;100.00
7026;BME280;3554;42.132;24.786;2023-04-03T02:24:17;98688.22;;;11.77;100.00
7026;BME280;3554;42.132;24.786;2023-04-03T02:26:44;98687.03;;;11.83;100.00
7026;BME280;3554;42.132;24.786;2023-04-03T02:29:10;98688.63;;;11.85;100.00
7026;BME280;3554;42.132;24.786;2023-04-03T02:31:37;98692.38;;;11.81;100.00
7026;BME280;3554;42.132;24.786;2023-04-03T02:34:04;98692.53;;;11.78;100.00
7026;BME280;3554;42.132;24.786;2023-04-03T02:36:31;98686.63;;;11.75;100.00
7026;BME280;3554;42.132;24.786;2023-04-03T02:38:57;98697.63;;;11.66;100.00
7026;BME280;3554;42.132;24.786;2023-04-03T02:41:25;98695.72;;;11.52;100.00
7026;BME280;3554;42.132;24.786;2023-04-03T02:43:58;98690.69;;;11.34;100.00
7026;BME280;3554;42.132;24.786;2023-04-03T02:46:25;98688.88;;;11.34;100.00
7026;BME280;3554;42.132;24.786;2023-04-03T02:48:52;98681.50;;;11.25;100.00
7026;BME280;3554;42.132;24.786;2023-04-03T02:51:19;98691.66;;;11.31;100.00
7026;BME280;3554;42.132;24.786;2023-04-03T02:53:46;98697.22;;;11.25;100.00
7026;BME280;3554;42.132;24.786;2023-04-03T02:56:12;98687.91;;;11.04;100.00
7026;BME280;3554;42.132;24.786;2023-04-03T02:58:40;98685.34;;;10.87;100.00
7026;BME280;3554;42.132;24.786;2023-04-03T03:01:07;98687.94;;;10.71;100.00
7026;BME280;3554;42.132;24.786;2023-04-03T03:03:34;98676.31;;;10.60;100.00
7026;BME280;3554;42.132;24.786;2023-04-03T03:06:02;98676.84;;;10.66;100.00
7026;BME280;3554;42.132;24.786;2023-04-03T03:08:29;98673.31;;;10.67;100.00
7026;BME280;3554;42.132;24.786;2023-04-03T03:10:55;98667.72;;;10.73;100.00
7026;BME280;3554;42.132;24.786;2023-04-03T03:13:22;98660.53;;;10.61;100.00
7026;BME280;3554;42.132;24.786;2023-04-03T03:15:51;98659.44;;;10.65;100.00
7026;BME280;3554;42.132;24.786;2023-04-03T03:18:18;98655.97;;;10.82;100.00
7026;BME280;3554;42.132;24.786;2023-04-03T03:20:45;98659.94;;;10.89;100.00
7026;BME280;3554;42.132;24.786;2023-04-03T03:23:12;98659.25;;;10.86;100.00
7026;BME280;3554;42.132;24.786;2023-04-03T03:25:39;98649.78;;;10.83;100.00
7026;BME280;3554;42.132;24.786;2023-04-03T03:28:06;98646.56;;;10.78;100.00
7026;BME280;3554;42.132;24.786;2023-04-03T03:30:33;98644.44;;;10.69;100.00
7026;BME280;3554;42.132;24.786;2023-04-03T03:33:01;98645.09;;;10.40;100.00
7026;BME280;3554;42.132;24.786;2023-04-03T03:35:28;98650.31;;;10.40;100.00
7026;BME280;3554;42.132;24.786;2023-04-03T03:37:55;98647.78;;;10.38;100.00
7026;BME280;3554;42.132;24.786;2023-04-03T03:40:22;98649.41;;;10.24;100.00
7026;BME280;3554;42.132;24.786;2023-04-03T03:42:48;98648.88;;;10.17;100.00
7026;BME280;3554;42.132;24.786;2023-04-03T03:45:15;98654.38;;;10.13;100.00
7026;BME280;3554;42.132;24.786;2023-04-03T03:47:42;98653.75;;;10.25;100.00
7026;BME280;3554;42.132;24.786;2023-04-03T03:50:10;98659.19;;;10.20;100.00
7026;BME280;3554;42.132;24.786;2023-04-03T03:52:37;98661.44;;;10.11;100.00
7026;BME280;3554;42.132;24.786;2023-04-03T03:55:04;98665.16;;;10.05;100.00
7026;BME280;3554;42.132;24.786;2023-04-03T03:57:31;98617.09;;;9.73;100.00
7026;BME280;3554;42.132;24.786;2023-04-03T03:59:58;98660.22;;;9.99;100.00
7026;BME280;3554;42.132;24.786;2023-04-03T04:02:25;98669.75;;;9.83;100.00
7026;BME280;3554;42.132;24.786;2023-04-03T04:04:51;98668.38;;;9.93;100.00
7026;BME280;3554;42.132;24.786;2023-04-03T04:07:20;98655.44;;;9.73;100.00
7026;BME280;3554;42.132;24.786;2023-04-03T04:09:46;98681.94;;;9.83;100.00
7026;BME280;3554;42.132;24.786;2023-04-03T04:12:13;98688.13;;;9.99;100.00
7026;BME280;3554;42.132;24.786;2023-04-03T04:14:41;98684.53;;;10.01;100.00
7026;BME280;3554;42.132;24.786;2023-04-03T04:17:08;98686.56;;;10.13;100.00
7026;BME280;3554;42.132;24.786;2023-04-03T04:19:35;98686.66;;;10.29;100.00
7026;BME280;3554;42.132;24.786;2023-04-03T04:22:02;98690.09;;;10.29;100.00
7026;BME280;3554;42.132;24.786;2023-04-03T04:24:30;98691.94;;;10.27;100.00
7026;BME280;3554;42.132;24.786;2023-04-03T04:26:57;98708.56;;;10.43;100.00
7026;BME280;3554;42.132;24.786;2023-04-03T04:29:24;98695.34;;;9.94;100.00
7026;BME280;3554;42.132;24.786;2023-04-03T04:31:51;98712.06;;;10.08;100.00
7026;BME280;3554;42.132;24.786;2023-04-03T04:34:17;98716.50;;;10.25;100.00
7026;BME280;3554;42.132;24.786;2023-04-03T04:36:44;98716.50;;;10.42;100.00
7026;BME280;3554;42.132;24.786;2023-04-03T04:39:11;98722.44;;;10.28;100.00
7026;BME280;3554;42.132;24.786;2023-04-03T04:41:39;98718.19;;;10.60;100.00
7026;BME280;3554;42.132;24.786;2023-04-03T04:44:06;98713.97;;;10.40;100.00
7026;BME280;3554;42.132;24.786;2023-04-03T04:46:33;98714.13;;;10.37;100.00
7026;BME280;3554;42.132;24.786;2023-04-03T04:49:00;98692.09;;;10.58;100.00
7026;BME280;3554;42.132;24.786;2023-04-03T04:51:27;98704.16;;;10.61;100.00
7026;BME280;3554;42.132;24.786;2023-04-03T04:53:54;98707.28;;;10.85;100.00
7026;BME280;3554;42.132;24.786;2023-04-03T04:56:20;98719.53;;;11.17;100.00
7026;BME280;3554;42.132;24.786;2023-04-03T04:58:49;98730.75;;;11.51;100.00
7026;BME280;3554;42.132;24.786;2023-04-03T05:01:15;98737.34;;;11.58;100.00
7026;BME280;3554;42.132;24.786;2023-04-03T05:03:43;98741.72;;;11.58;100.00
7026;BME280;3554;42.132;24.786;2023-04-03T05:06:10;98729.34;;;11.29;100.00
7026;BME280;3554;42.132;24.786;2023-04-03T05:08:37;98714.97;;;10.55;100.00
7026;BME280;3554;42.132;24.786;2023-04-03T05:11:04;98732.19;;;10.76;100.00
7026;BME280;3554;42.132;24.786;2023-04-03T05:13:31;98733.84;;;10.94;100.00
7026;BME280;3554;42.132;24.786;2023-04-03T05:15:59;98716.16;;;11.15;100.00
7026;BME280;3554;42.132;24.786;2023-04-03T05:18:25;98724.66;;;11.35;100.00
7026;BME280;3554;42.132;24.786;2023-04-03T05:20:52;98737.44;;;11.09;100.00
7026;BME280;3554;42.132;24.786;2023-04-03T05:23:19;98734.94;;;11.23;100.00
7026;BME280;3554;42.132;24.786;2023-04-03T05:25:46;98743.50;;;11.42;100.00
7026;BME280;3554;42.132;24.786;2023-04-03T05:28:14;98758.41;;;11.57;100.00
7026;BME280;3554;42.132;24.786;2023-04-03T05:30:41;98750.66;;;11.71;100.00
7026;BME280;3554;42.132;24.786;2023-04-03T05:33:09;98753.56;;;11.49;100.00
7026;BME280;3554;42.132;24.786;2023-04-03T05:35:37;98763.00;;;11.69;100.00
7026;BME280;3554;42.132;24.786;2023-04-03T05:38:04;98754.72;;;11.92;100.00
7026;BME280;3554;42.132;24.786;2023-04-03T05:40:31;98747.97;;;11.40;100.00
7026;BME280;3554;42.132;24.786;2023-04-03T05:42:58;98750.88;;;10.86;100.00
7026;BME280;3554;42.132;24.786;2023-04-03T05:45:25;98756.19;;;11.17;100.00
7026;BME280;3554;42.132;24.786;2023-04-03T05:47:52;98756.47;;;11.12;100.00
7026;BME280;3554;42.132;24.786;2023-04-03T05:50:20;98758.16;;;11.29;100.00
7026;BME280;3554;42.132;24.786;2023-04-03T05:52:49;98737.44;;;11.09;100.00
7026;BME280;3554;42.132;24.786;2023-04-03T05:55:17;98735.59;;;10.94;100.00
7026;BME280;3554;42.132;24.786;2023-04-03T05:57:44;98756.50;;;11.11;100.00
7026;BME280;3554;42.132;24.786;2023-04-03T06:00:13;98769.41;;;11.31;100.00
7026;BME280;3554;42.132;24.786;2023-04-03T06:02:41;98772.72;;;11.02;100.00
7026;BME280;3554;42.132;24.786;2023-04-03T06:05:08;98763.94;;;11.03;100.00
7026;BME280;3554;42.132;24.786;2023-04-03T06:07:38;98768.56;;;10.98;100.00
7026;BME280;3554;42.132;24.786;2023-04-03T06:10:06;98767.38;;;11.20;100.00
7026;BME280;3554;42.132;24.786;2023-04-03T06:12:34;98770.78;;;11.70;100.00
7026;BME280;3554;42.132;24.786;2023-04-03T06:15:01;98771.38;;;11.43;100.00
7026;BME280;3554;42.132;24.786;2023-04-03T06:17:27;98774.81;;;11.60;100.00
7026;BME280;3554;42.132;24.786;2023-04-03T06:19:55;98784.97;;;11.82;100.00
7026;BME280;3554;42.132;24.786;2023-04-03T06:22:23;98772.00;;;11.48;100.00
7026;BME280;3554;42.132;24.786;2023-04-03T06:24:53;98772.41;;;11.56;100.00
7026;BME280;3554;42.132;24.786;2023-04-03T06:27:20;98768.16;;;11.38;100.00
7026;BME280;3554;42.132;24.786;2023-04-03T06:29:46;98751.41;;;10.92;100.00
7026;BME280;3554;42.132;24.786;2023-04-03T06:32:14;98759.59;;;11.19;100.00
7026;BME280;3554;42.132;24.786;2023-04-03T06:34:41;98751.94;;;11.31;100.00
7026;BME280;3554;42.132;24.786;2023-04-03T06:37:10;98749.13;;;11.34;100.00
7026;BME280;3554;42.132;24.786;2023-04-03T06:39:37;98763.16;;;11.66;100.00
7026;BME280;3554;42.132;24.786;2023-04-03T06:42:05;98766.03;;;11.93;100.00
7026;BME280;3554;42.132;24.786;2023-04-03T06:44:32;98774.28;;;12.32;100.00
7026;BME280;3554;42.132;24.786;2023-04-03T06:47:00;98791.50;;;12.51;100.00
7026;BME280;3554;42.132;24.786;2023-04-03T06:49:27;98791.16;;;12.57;100.00
7026;BME280;3554;42.132;24.786;2023-04-03T06:51:54;98798.97;;;12.73;100.00
7026;BME280;3554;42.132;24.786;2023-04-03T06:54:21;98787.50;;;12.89;100.00
7026;BME280;3554;42.132;24.786;2023-04-03T06:56:48;98769.41;;;12.55;100.00
7026;BME280;3554;42.132;24.786;2023-04-03T06:59:17;98799.78;;;12.89;100.00
7026;BME280;3554;42.132;24.786;2023-04-03T07:01:43;98800.59;;;13.19;100.00
7026;BME280;3554;42.132;24.786;2023-04-03T07:04:10;98788.53;;;13.45;100.00
7026;BME280;3554;42.132;24.786;2023-04-03T07:06:38;98794.72;;;13.58;100.00
7026;BME280;3554;42.132;24.786;2023-04-03T07:09:04;98793.75;;;13.73;100.00
7026;BME280;3554;42.132;24.786;2023-04-03T07:11:33;98796.84;;;13.65;100.00
7026;BME280;3554;42.132;24.786;2023-04-03T07:14:00;98796.19;;;13.90;100.00
7026;BME280;3554;42.132;24.786;2023-04-03T07:16:28;98799.56;;;14.19;100.00
7026;BME280;3554;42.132;24.786;2023-04-03T07:18:56;98793.41;;;14.46;100.00
7026;BME280;3554;42.132;24.786;2023-04-03T07:21:22;98793.91;;;14.39;100.00
7026;BME280;3554;42.132;24.786;2023-04-03T07:23:49;98778.88;;;14.41;100.00
7026;BME280;3554;42.132;24.786;2023-04-03T07:26:16;98795.34;;;14.57;100.00
7026;BME280;3554;42.132;24.786;2023-04-03T07:28:43;98784.38;;;14.50;100.00
7026;BME280;3554;42.132;24.786;2023-04-03T07:31:14;98785.84;;;14.42;100.00
7026;BME280;3554;42.132;24.786;2023-04-03T07:33:43;98753.94;;;14.59;100.00
7026;BME280;3554;42.132;24.786;2023-04-03T07:36:15;98778.44;;;14.73;100.00
7026;BME280;3554;42.132;24.786;2023-04-03T07:38:42;98789.03;;;14.98;100.00
7026;BME280;3554;42.132;24.786;2023-04-03T07:41:12;98798.28;;;14.91;100.00
7026;BME280;3554;42.132;24.786;2023-04-03T07:43:40;98790.69;;;14.99;100.00
7026;BME280;3554;42.132;24.786;2023-04-03T07:46:07;98786.94;;;14.64;100.00
7026;BME280;3554;42.132;24.786;2023-04-03T07:48:34;98776.06;;;14.30;100.00
7026;BME280;3554;42.132;24.786;2023-04-03T07:51:04;98786.50;;;14.31;100.00
7026;BME280;3554;42.132;24.786;2023-04-03T07:53:31;98768.00;;;14.19;100.00
7026;BME280;3554;42.132;24.786;2023-04-03T07:55:59;98761.91;;;14.18;100.00
7026;BME280;3554;42.132;24.786;2023-04-03T07:58:28;98764.22;;;14.23;100.00
7026;BME280;3554;42.132;24.786;2023-04-03T08:00:55;98768.72;;;14.74;100.00
7026;BME280;3554;42.132;24.786;2023-04-03T08:03:22;98772.00;;;14.77;100.00
7026;BME280;3554;42.132;24.786;2023-04-03T08:05:50;98762.34;;;15.03;100.00
7026;BME280;3554;42.132;24.786;2023-04-03T08:08:21;98761.81;;;14.98;100.00
7026;BME280;3554;42.132;24.786;2023-04-03T08:10:49;98761.19;;;15.07;100.00
7026;BME280;3554;42.132;24.786;2023-04-03T08:13:16;98772.38;;;15.23;100.00
7026;BME280;3554;42.132;24.786;2023-04-03T08:15:43;98760.44;;;15.18;100.00
7026;BME280;3554;42.132;24.786;2023-04-03T08:18:10;98759.59;;;15.17;100.00
7026;BME280;3554;42.132;24.786;2023-04-03T08:20:38;98758.34;;;15.10;100.00
7026;BME280;3554;42.132;24.786;2023-04-03T08:23:05;98749.38;;;15.25;100.00
7026;BME280;3554;42.132;24.786;2023-04-03T08:25:33;98758.25;;;15.49;100.00
7026;BME280;3554;42.132;24.786;2023-04-03T08:28:01;98755.78;;;15.71;100.00
7026;BME280;3554;42.132;24.786;2023-04-03T08:30:29;98760.88;;;15.49;100.00
7026;BME280;3554;42.132;24.786;2023-04-03T08:32:56;98755.19;;;15.43;100.00
7026;BME280;3554;42.132;24.786;2023-04-03T08:35:23;98751.44;;;15.70;100.00
7026;BME280;3554;42.132;24.786;2023-04-03T08:37:49;98747.03;;;15.21;100.00
7026;BME280;3554;42.132;24.786;2023-04-03T08:40:16;98744.28;;;15.35;100.00
7026;BME280;3554;42.132;24.786;2023-04-03T08:42:53;98730.47;;;15.31;100.00
7026;BME280;3554;42.132;24.786;2023-04-03T08:45:40;98724.56;;;15.28;100.00
7026;BME280;3554;42.132;24.786;2023-04-03T08:48:13;98727.56;;;15.11;100.00
7026;BME280;3554;42.132;24.786;2023-04-03T08:50:44;98720.91;;;15.18;100.00
7026;BME280;3554;42.132;24.786;2023-04-03T08:53:15;98701.19;;;15.11;100.00
7026;BME280;3554;42.132;24.786;2023-04-03T08:55:44;98708.47;;;15.07;100.00
7026;BME280;3554;42.132;24.786;2023-04-03T08:58:16;98707.06;;;14.64;100.00
7026;BME280;3554;42.132;24.786;2023-04-03T09:00:47;98701.06;;;14.62;100.00
7026;BME280;3554;42.132;24.786;2023-04-03T09:03:17;98686.84;;;14.64;100.00
7026;BME280;3554;42.132;24.786;2023-04-03T09:05:47;98701.81;;;14.89;100.00
7026;BME280;3554;42.132;24.786;2023-04-03T09:08:22;98704.69;;;14.98;100.00
7026;BME280;3554;42.132;24.786;2023-04-03T09:10:52;98696.78;;;14.98;100.00
7026;BME280;3554;42.132;24.786;2023-04-03T09:13:30;98703.91;;;14.59;100.00
7026;BME280;3554;42.132;24.786;2023-04-03T09:15:57;98705.81;;;14.57;100.00
7026;BME280;3554;42.132;24.786;2023-04-03T09:18:28;98661.47;;;14.24;100.00
7026;BME280;3554;42.132;24.786;2023-04-03T09:21:01;98699.78;;;14.55;100.00
7026;BME280;3554;42.132;24.786;2023-04-03T09:23:34;98702.75;;;14.50;100.00
7026;BME280;3554;42.132;24.786;2023-04-03T09:26:05;98668.38;;;14.00;100.00
7026;BME280;3554;42.132;24.786;2023-04-03T09:28:38;98699.00;;;14.28;100.00
7026;BME280;3554;42.132;24.786;2023-04-03T09:31:16;98694.56;;;14.28;100.00
7026;BME280;3554;42.132;24.786;2023-04-03T09:33:45;98698.84;;;14.43;100.00
7026;BME280;3554;42.132;24.786;2023-04-03T09:36:13;98701.88;;;14.37;100.00
7026;BME280;3554;42.132;24.786;2023-04-03T09:38:40;98694.50;;;14.16;100.00
7026;BME280;3554;42.132;24.786;2023-04-03T09:41:13;98698.75;;;14.18;100.00
7026;BME280;3554;42.132;24.786;2023-04-03T09:43:52;98679.28;;;13.94;100.00
7026;BME280;3554;42.132;24.786;2023-04-03T09:46:28;98685.06;;;13.99;100.00
7026;BME280;3554;42.132;24.786;2023-04-03T09:48:57;98692.25;;;13.97;100.00
7026;BME280;3554;42.132;24.786;2023-04-03T09:51:26;98681.03;;;13.81;100.00
7026;BME280;3554;42.132;24.786;2023-04-03T09:53:54;98656.94;;;13.60;100.00
7026;BME280;3554;42.132;24.786;2023-04-03T09:56:24;98648.47;;;13.69;100.00
7026;BME280;3554;42.132;24.786;2023-04-03T09:59:06;98661.38;;;13.86;100.00
7026;BME280;3554;42.132;24.786;2023-04-03T10:01:36;98659.78;;;13.84;100.00
7026;BME280;3554;42.132;24.786;2023-04-03T10:04:09;98652.75;;;13.84;100.00
7026;BME280;3554;42.132;24.786;2023-04-03T10:06:38;98677.88;;;13.88;100.00
7026;BME280;3554;42.132;24.786;2023-04-03T10:09:17;98665.88;;;14.11;100.00
7026;BME280;3554;42.132;24.786;2023-04-03T10:12:06;98676.03;;;14.30;100.00
7026;BME280;3554;42.132;24.786;2023-04-03T10:14:38;98676.72;;;14.19;100.00
7026;BME280;3554;42.132;24.786;2023-04-03T10:17:14;98664.66;;;13.90;100.00
7026;BME280;3554;42.132;24.786;2023-04-03T10:19:46;98603.75;;;13.69;100.00
7026;BME280;3554;42.132;24.786;2023-04-03T10:22:27;98668.16;;;14.03;100.00
7026;BME280;3554;42.132;24.786;2023-04-03T10:25:03;98660.75;;;13.95;100.00
7026;BME280;3554;42.132;24.786;2023-04-03T10:27:38;98663.69;;;13.91;100.00
7026;BME280;3554;42.132;24.786;2023-04-03T10:30:19;98660.63;;;13.84;100.00
7026;BME280;3554;42.132;24.786;2023-04-03T10:32:58;98659.34;;;13.77;100.00
7026;BME280;3554;42.132;24.786;2023-04-03T10:35:37;98656.78;;;13.76;100.00
7026;BME280;3554;42.132;24.786;2023-04-03T10:38:14;98652.31;;;13.90;100.00
7026;BME280;3554;42.132;24.786;2023-04-03T10:40:49;98661.81;;;13.93;100.00
7026;BME280;3554;42.132;24.786;2023-04-03T10:43:24;98665.63;;;14.02;100.00
7026;BME280;3554;42.132;24.786;2023-04-03T10:46:00;98658.91;;;14.10;100.00
7026;BME280;3554;42.132;24.786;2023-04-03T10:48:42;98642.59;;;14.05;100.00
7026;BME280;3554;42.132;24.786;2023-04-03T10:51:22;98670.31;;;14.23;100.00
7026;BME280;3554;42.132;24.786;2023-04-03T10:53:55;98671.28;;;14.22;100.00
7026;BME280;3554;42.132;24.786;2023-04-03T10:56:31;98674.50;;;14.40;100.00
7026;BME280;3554;42.132;24.786;2023-04-03T10:59:13;98644.28;;;14.06;100.00
7026;BME280;3554;42.132;24.786;2023-04-03T11:01:45;98652.56;;;14.00;100.00
7026;BME280;3554;42.132;24.786;2023-04-03T11:04:14;98625.91;;;13.79;100.00
7026;BME280;3554;42.132;24.786;2023-04-03T11:06:46;98669.84;;;14.04;100.00
7026;BME280;3554;42.132;24.786;2023-04-03T11:09:20;98670.81;;;14.16;100.00
7026;BME280;3554;42.132;24.786;2023-04-03T11:11:52;98663.31;;;13.97;100.00
7026;BME280;3554;42.132;24.786;2023-04-03T11:14:26;98630.69;;;13.73;100.00
7026;BME280;3554;42.132;24.786;2023-04-03T11:17:01;98667.81;;;13.95;100.00
7026;BME280;3554;42.132;24.786;2023-04-03T11:19:35;98661.34;;;13.74;100.00
7026;BME280;3554;42.132;24.786;2023-04-03T11:22:10;98657.38;;;13.81;100.00
7026;BME280;3554;42.132;24.786;2023-04-03T11:24:41;98656.63;;;13.79;100.00
7026;BME280;3554;42.132;24.786;2023-04-03T11:27:13;98633.78;;;13.79;100.00
7026;BME280;3554;42.132;24.786;2023-04-03T11:29:44;98635.19;;;13.97;100.00
7026;BME280;3554;42.132;24.786;2023-04-03T11:32:29;98632.94;;;14.18;100.00
7026;BME280;3554;42.132;24.786;2023-04-03T11:35:01;98626.88;;;14.43;100.00
7026;BME280;3554;42.132;24.786;2023-04-03T11:37:32;98642.38;;;14.47;100.00
7026;BME280;3554;42.132;24.786;2023-04-03T11:40:04;98641.72;;;14.44;100.00
7026;BME280;3554;42.132;24.786;2023-04-03T11:42:36;98637.31;;;14.44;100.00
7026;BME280;3554;42.132;24.786;2023-04-03T11:45:22;98632.25;;;14.41;100.00
7026;BME280;3554;42.132;24.786;2023-04-03T11:47:53;98616.34;;;13.91;100.00
7026;BME280;3554;42.132;24.786;2023-04-03T11:50:47;98630.03;;;13.96;100.00
7026;BME280;3554;42.132;24.786;2023-04-03T11:53:29;98616.22;;;13.53;100.00
7026;BME280;3554;42.132;24.786;2023-04-03T11:56:32;98630.38;;;13.65;100.00
7026;BME280;3554;42.132;24.786;2023-04-03T11:59:25;98617.44;;;13.48;100.00
7026;BME280;3554;42.132;24.786;2023-04-03T12:01:53;98605.53;;;13.42;100.00
7026;BME280;3554;42.132;24.786;2023-04-03T12:04:24;98600.44;;;13.53;100.00
7026;BME280;3554;42.132;24.786;2023-04-03T12:09:54;98592.25;;;13.84;100.00
7026;BME280;3554;42.132;24.786;2023-04-03T12:12:30;98588.34;;;13.51;100.00
7026;BME280;3554;42.132;24.786;2023-04-03T12:15:17;98543.78;;;12.94;100.00
7026;BME280;3554;42.132;24.786;2023-04-03T12:17:45;98595.66;;;13.05;100.00
7026;BME280;3554;42.132;24.786;2023-04-03T12:20:53;98599.78;;;12.95;100.00
7026;BME280;3554;42.132;24.786;2023-04-03T12:23:30;98590.63;;;12.74;100.00
7026;BME280;3554;42.132;24.786;2023-04-03T12:26:21;98578.91;;;12.79;100.00
7026;BME280;3554;42.132;24.786;2023-04-03T12:28:50;98563.91;;;12.81;100.00
7026;BME280;3554;42.132;24.786;2023-04-03T12:31:19;98554.50;;;12.91;100.00
7026;BME280;3554;42.132;24.786;2023-04-03T12:34:00;98538.47;;;13.23;100.00
7026;BME280;3554;42.132;24.786;2023-04-03T12:36:37;98515.44;;;13.00;100.00
7026;BME280;3554;42.132;24.786;2023-04-03T12:39:16;98496.59;;;12.93;100.00
7026;BME280;3554;42.132;24.786;2023-04-03T12:41:54;98487.03;;;13.06;100.00
7026;BME280;3554;42.132;24.786;2023-04-03T12:44:33;98486.69;;;12.84;100.00
7026;BME280;3554;42.132;24.786;2023-04-03T12:47:16;98432.66;;;12.53;100.00
7026;BME280;3554;42.132;24.786;2023-04-03T12:49:46;98414.75;;;12.86;100.00
7026;BME280;3554;42.132;24.786;2023-04-03T12:52:22;98356.31;;;13.10;100.00
7026;BME280;3554;42.132;24.786;2023-04-03T12:54:53;98332.69;;;13.10;100.00
7026;BME280;3554;42.132;24.786;2023-04-03T12:57:25;98295.31;;;12.79;100.00
7026;BME280;3554;42.132;24.786;2023-04-03T12:59:53;98257.16;;;12.61;100.00
7026;BME280;3554;42.132;24.786;2023-04-03T13:02:23;98211.88;;;12.45;100.00
7026;BME280;3554;42.132;24.786;2023-04-03T13:04:52;98137.75;;;12.29;100.00
7026;BME280;3554;42.132;24.786;2023-04-03T13:07:30;98082.22;;;12.10;100.00
7026;BME280;3554;42.132;24.786;2023-04-03T13:10:02;97996.59;;;12.09;100.00
7026;BME280;3554;42.132;24.786;2023-04-03T13:12:29;97895.91;;;11.99;100.00
7026;BME280;3554;42.132;24.786;2023-04-03T13:14:59;97801.69;;;12.09;100.00
7026;BME280;3554;42.132;24.786;2023-04-03T13:17:27;97730.63;;;12.01;100.00